UACK 200530Z 29004MPS 260V330 CAVOK 23/12 Q1001 NOSIG RMK QFE727/0970
QNH:(hPa/inHg/mmHg)1001 / 29.56 / 751
QFE:(hPa/inHg/mmHg)968 / 28.59 / 726
Temperature23
Dew Point12
Visibility> 10000
WeatherCAVOK
Cloud Cover
Transition Altitude10000 ft.
Transition LevelFL120
SQUAWK